createdAt,value
2019-02-28T00:01:43.166Z,73.80
2019-02-28T00:04:12.711Z,74.50
2019-02-28T00:06:43.999Z,74.80
2019-02-28T00:11:40.852Z,75.80
2019-02-28T00:14:09.740Z,76.50
2019-02-28T00:16:38.704Z,77.40
2019-02-28T00:19:07.557Z,77.30
2019-02-28T00:21:37.373Z,77.80
2019-02-28T00:24:06.991Z,77.80
2019-02-28T00:26:35.915Z,78.10
2019-02-28T00:29:04.850Z,81.30
2019-02-28T00:34:05.487Z,78.30
2019-02-28T00:36:33.088Z,78.00
2019-02-28T00:41:30.382Z,78.40
2019-02-28T00:43:59.057Z,78.40
2019-02-28T00:48:56.605Z,78.60
2019-02-28T00:53:53.964Z,77.80
2019-02-28T00:56:22.871Z,78.00
2019-02-28T00:58:51.736Z,77.90
2019-02-28T01:01:20.874Z,78.00
2019-02-28T01:03:49.586Z,78.30
2019-02-28T01:06:18.475Z,78.30
2019-02-28T01:08:47.389Z,77.90
2019-02-28T01:11:16.361Z,77.60
2019-02-28T01:16:16.055Z,77.70
2019-02-28T01:18:44.767Z,77.50
2019-02-28T01:21:13.487Z,76.90
2019-02-28T01:26:11.731Z,77.00
2019-02-28T01:31:11.620Z,77.80
2019-02-28T01:33:40.706Z,78.20
2019-02-28T01:38:40.014Z,79.30
2019-02-28T01:41:11.245Z,79.80
2019-02-28T01:43:39.674Z,79.90
2019-02-28T01:46:08.754Z,79.90
2019-02-28T01:48:37.729Z,80.10
2019-02-28T01:51:15.859Z,80.20
2019-02-28T01:53:44.812Z,79.70
2019-02-28T01:56:13.905Z,78.00
2019-02-28T02:01:11.362Z,78.30
2019-02-28T02:03:40.923Z,79.00
2019-02-28T02:06:10.760Z,78.20
2019-02-28T02:08:39.674Z,78.10
2019-02-28T02:11:10.021Z,77.70
2019-02-28T02:13:41.834Z,78.20
2019-02-28T02:16:10.932Z,78.60
2019-02-28T02:18:40.327Z,79.10
2019-02-28T02:23:39.183Z,79.90
2019-02-28T02:26:08.394Z,80.00
2019-02-28T02:28:38.854Z,80.10
2019-02-28T02:31:07.836Z,80.20
2019-02-28T02:33:36.839Z,80.30
2019-02-28T02:36:05.978Z,80.60
2019-02-28T02:38:40.108Z,80.70
2019-02-28T02:41:05.859Z,79.60
2019-02-28T02:46:03.691Z,79.20
2019-02-28T02:48:32.659Z,79.60
2019-02-28T02:51:01.820Z,79.20
2019-02-28T02:53:30.763Z,78.80
2019-02-28T02:56:03.606Z,78.20
2019-02-28T02:58:30.550Z,78.80
2019-02-28T03:01:01.102Z,79.50
2019-02-28T03:03:29.906Z,79.80
2019-02-28T03:08:27.339Z,79.90
2019-02-28T03:10:56.362Z,79.80
2019-02-28T03:13:28.536Z,79.20
2019-02-28T03:15:59.308Z,79.10
2019-02-28T03:18:28.205Z,78.90
2019-02-28T03:20:57.332Z,79.50
2019-02-28T03:23:26.388Z,80.00
2019-02-28T03:25:55.297Z,81.30
2019-02-28T03:30:52.777Z,80.90
2019-02-28T03:33:27.484Z,81.90
2019-02-28T03:35:52.097Z,80.40
2019-02-28T03:38:21.506Z,80.70
2019-02-28T03:43:19.239Z,80.20
2019-02-28T03:45:48.152Z,79.80
2019-02-28T03:48:17.504Z,80.50
2019-02-28T03:53:19.596Z,81.30
2019-02-28T03:55:45.557Z,80.50
2019-02-28T03:58:14.662Z,80.60
2019-02-28T04:00:43.855Z,80.70
2019-02-28T04:03:12.964Z,80.10
2019-02-28T04:05:42.158Z,80.20
2019-02-28T04:08:11.256Z,80.40
2019-02-28T04:13:08.980Z,80.20
2019-02-28T04:15:37.942Z,80.10
2019-02-28T04:18:08.427Z,80.00
2019-02-28T04:20:40.155Z,80.30
2019-02-28T04:23:15.035Z,79.60
2019-02-28T04:25:45.658Z,79.50
2019-02-28T04:28:19.083Z,79.70
2019-02-28T04:30:51.702Z,80.80
2019-02-28T04:33:21.035Z,80.60
2019-02-28T04:38:20.884Z,81.30
2019-02-28T04:40:49.711Z,82.10
2019-02-28T04:43:21.884Z,81.50
2019-02-28T04:45:50.652Z,81.20
2019-02-28T04:48:19.487Z,80.90
2019-02-28T04:50:48.253Z,80.10
2019-02-28T04:53:22.558Z,79.90
2019-02-28T04:55:51.700Z,80.00
2019-02-28T05:00:56.691Z,80.60
2019-02-28T05:03:29.036Z,81.50
2019-02-28T05:05:57.058Z,81.60
2019-02-28T05:08:26.667Z,81.80
2019-02-28T05:13:26.068Z,81.40
2019-02-28T05:18:27.628Z,81.20
2019-02-28T05:28:25.737Z,80.30
2019-02-28T05:33:26.682Z,81.80
2019-02-28T05:38:49.406Z,80.70
2019-02-28T05:41:18.536Z,80.90
2019-02-28T05:43:53.714Z,81.20
2019-02-28T05:46:32.825Z,80.30
2019-02-28T05:49:04.860Z,81.00
2019-02-28T05:54:03.809Z,81.10
2019-02-28T05:56:40.068Z,81.00
2019-02-28T05:59:10.135Z,81.30
2019-02-28T06:01:39.462Z,81.40
2019-02-28T06:04:10.458Z,81.10
2019-02-28T06:06:40.700Z,81.00
2019-02-28T06:09:14.829Z,80.60
2019-02-28T06:11:47.173Z,80.40
2019-02-28T06:19:16.033Z,80.30
2019-02-28T06:21:45.447Z,80.40
2019-02-28T06:24:16.223Z,80.90
2019-02-28T06:26:45.432Z,81.50
2019-02-28T06:29:14.577Z,81.60
2019-02-28T06:31:48.638Z,81.60
2019-02-28T06:34:21.767Z,81.40
2019-02-28T06:42:00.983Z,81.40
2019-02-28T06:44:34.471Z,81.70
2019-02-28T06:47:03.840Z,82.20
2019-02-28T06:49:42.206Z,82.50
2019-02-28T06:52:17.804Z,82.60
2019-02-28T06:54:49.766Z,82.90
2019-02-28T06:59:49.234Z,82.80
2019-02-28T07:02:20.599Z,83.30
2019-02-28T07:09:49.739Z,83.30
2019-02-28T07:12:21.435Z,83.60
2019-02-28T07:17:27.013Z,83.50
2019-02-28T07:20:05.641Z,83.50
2019-02-28T07:22:40.031Z,83.40
2019-02-28T07:25:09.413Z,83.90
2019-02-28T07:27:42.778Z,89.20
2019-02-28T07:32:49.105Z,82.50
2019-02-28T07:35:20.907Z,81.90
2019-02-28T07:37:54.503Z,82.30
2019-02-28T07:40:23.824Z,78.70
2019-02-28T07:42:54.731Z,75.30
2019-02-28T07:45:24.088Z,72.90
2019-02-28T07:48:05.006Z,72.70
2019-02-28T07:50:34.250Z,69.60
2019-02-28T07:53:08.802Z,67.60
2019-02-28T07:55:37.133Z,65.20
2019-02-28T08:00:34.827Z,62.10
2019-02-28T08:03:03.582Z,59.50
2019-02-28T08:05:32.292Z,60.00
2019-02-28T08:08:01.233Z,55.40
2019-02-28T08:10:29.995Z,53.30
2019-02-28T08:13:12.461Z,53.10
2019-02-28T08:18:10.161Z,50.30
2019-02-28T08:23:08.145Z,48.60
2019-02-28T08:25:39.693Z,47.10
2019-02-28T08:28:07.802Z,47.00
2019-02-28T08:30:36.778Z,46.30
2019-02-28T08:33:08.949Z,45.90
2019-02-28T08:35:40.944Z,45.80
2019-02-28T08:38:15.749Z,45.10
2019-02-28T08:40:51.494Z,43.00
2019-02-28T08:43:26.828Z,42.90
2019-02-28T08:45:50.026Z,41.20
2019-02-28T08:48:23.658Z,40.90
2019-02-28T08:51:06.443Z,40.30
2019-02-28T08:56:14.008Z,39.60
2019-02-28T09:01:14.863Z,39.00
2019-02-28T09:03:45.987Z,38.90
2019-02-28T09:13:43.679Z,37.40
2019-02-28T09:16:13.488Z,37.20
2019-02-28T09:18:42.445Z,36.70
2019-02-28T09:21:11.116Z,36.60
2019-02-28T09:38:39.042Z,34.10
2019-02-28T09:46:15.276Z,32.40
2019-02-28T09:59:04.267Z,31.70
2019-02-28T10:01:36.214Z,31.90
2019-02-28T10:04:10.393Z,31.50
2019-02-28T10:09:31.059Z,30.00
2019-02-28T10:12:08.691Z,30.10
2019-02-28T10:17:36.349Z,30.30
2019-02-28T10:20:09.674Z,30.60
2019-02-28T10:25:12.651Z,30.50
2019-02-28T10:30:16.652Z,30.30
2019-02-28T10:32:49.286Z,30.60
2019-02-28T10:43:06.192Z,30.30
2019-02-28T10:48:28.141Z,30.10
2019-02-28T10:50:56.976Z,30.80
2019-02-28T10:53:29.506Z,30.70
2019-02-28T11:00:59.495Z,30.40
2019-02-28T11:06:13.010Z,30.00
2019-02-28T11:13:54.718Z,29.30
2019-02-28T11:21:29.824Z,29.20
2019-02-28T11:36:44.775Z,28.40
2019-02-28T11:39:21.566Z,27.20
2019-02-28T11:42:04.397Z,27.00
2019-02-28T11:44:43.479Z,27.60
2019-02-28T11:52:20.415Z,27.70
2019-02-28T12:02:23.125Z,28.10
2019-02-28T12:04:52.315Z,28.40
2019-02-28T12:09:55.704Z,28.00
2019-02-28T12:12:27.274Z,27.20
2019-02-28T12:15:02.393Z,28.10
2019-02-28T12:20:06.172Z,27.10
2019-02-28T12:22:35.541Z,26.40
2019-02-28T12:27:44.308Z,26.40
2019-02-28T12:32:46.710Z,26.40
2019-02-28T12:35:22.152Z,26.30
2019-02-28T12:37:55.012Z,26.20
2019-02-28T12:40:29.768Z,26.60
2019-02-28T12:45:37.057Z,27.10
2019-02-28T12:48:06.486Z,26.50
2019-02-28T12:50:36.894Z,26.70
2019-02-28T12:53:06.043Z,27.40
2019-02-28T12:55:40.138Z,27.00
2019-02-28T12:58:11.541Z,27.10
2019-02-28T13:03:19.458Z,27.60
2019-02-28T13:05:50.779Z,27.10
2019-02-28T13:16:01.270Z,27.30
2019-02-28T13:18:35.471Z,27.40
2019-02-28T13:21:10.657Z,27.30
2019-02-28T13:23:37.899Z,27.40
2019-02-28T13:28:39.694Z,27.10
2019-02-28T13:31:10.010Z,27.00
2019-02-28T13:33:48.634Z,26.90
2019-02-28T13:36:18.265Z,27.50
2019-02-28T13:39:04.233Z,27.30
2019-02-28T13:41:33.193Z,27.20
2019-02-28T13:46:35.458Z,27.30
2019-02-28T13:49:11.598Z,26.70
2019-02-28T13:51:42.794Z,26.70
2019-02-28T13:54:14.869Z,27.00
2019-02-28T14:04:19.362Z,27.20
2019-02-28T14:06:55.799Z,27.30
2019-02-28T14:09:25.273Z,26.60
2019-02-28T14:11:54.699Z,26.80
2019-02-28T14:16:58.364Z,26.90
2019-02-28T14:19:33.662Z,26.20
2019-02-28T14:24:38.798Z,26.60
2019-02-28T14:32:07.447Z,26.80
2019-02-28T14:34:36.684Z,26.70
2019-02-28T14:37:05.896Z,26.90
2019-02-28T14:39:34.968Z,26.80
2019-02-28T14:44:34.465Z,27.10
2019-02-28T14:52:19.396Z,27.30
2019-02-28T14:54:52.869Z,26.50
2019-02-28T14:57:41.568Z,26.50
2019-02-28T15:00:15.378Z,26.60
2019-02-28T15:07:53.780Z,26.50
2019-02-28T15:15:32.560Z,27.60
2019-02-28T15:18:04.319Z,26.90
2019-02-28T15:23:14.910Z,27.30
2019-02-28T15:25:50.743Z,27.20
2019-02-28T15:28:17.708Z,27.40
2019-02-28T15:30:49.008Z,27.50
2019-02-28T15:33:19.355Z,27.60
2019-02-28T15:38:19.660Z,27.50
2019-02-28T15:40:48.710Z,27.30
2019-02-28T15:48:20.103Z,27.80
2019-02-28T15:50:56.876Z,28.20
2019-02-28T15:53:28.610Z,28.30
2019-02-28T15:55:57.810Z,28.10
2019-02-28T15:58:27.006Z,27.90
2019-02-28T16:03:26.173Z,28.30
2019-02-28T16:10:56.533Z,28.60
2019-02-28T16:13:27.226Z,29.10
2019-02-28T16:15:57.281Z,29.10
2019-02-28T16:18:29.838Z,29.30
2019-02-28T16:26:00.381Z,29.50
2019-02-28T16:28:34.711Z,29.50
2019-02-28T16:38:35.825Z,30.20
2019-02-28T16:43:36.935Z,30.40
2019-02-28T16:48:38.400Z,30.60
2019-02-28T16:53:36.424Z,31.00
2019-02-28T16:56:10.122Z,31.00
2019-02-28T16:58:39.268Z,31.60
2019-02-28T17:01:08.308Z,31.80
2019-02-28T17:03:38.399Z,31.90
2019-02-28T17:06:15.955Z,32.00
2019-02-28T17:08:56.923Z,32.60
2019-02-28T17:11:30.088Z,32.50
2019-02-28T17:14:13.826Z,32.80
2019-02-28T17:16:48.265Z,33.10
2019-02-28T17:19:23.951Z,66.10
2019-02-28T17:21:56.352Z,33.50
2019-02-28T17:24:25.323Z,33.70
2019-02-28T17:27:11.981Z,34.00
2019-02-28T17:29:48.529Z,34.20
2019-02-28T17:32:23.949Z,34.50
2019-02-28T17:34:59.027Z,34.30
2019-02-28T17:40:05.101Z,34.80
2019-02-28T17:42:34.450Z,35.00
2019-02-28T17:54:24.170Z,35.80
2019-02-28T17:57:36.297Z,35.50
2019-02-28T18:00:41.785Z,35.90
2019-02-28T18:03:38.075Z,36.10
2019-02-28T18:09:48.108Z,36.20
2019-02-28T18:18:17.961Z,36.40
2019-02-28T18:21:46.834Z,36.40
2019-02-28T18:24:42.522Z,36.90
2019-02-28T18:32:43.549Z,37.90
2019-02-28T18:37:52.057Z,38.40
2019-02-28T18:40:25.503Z,38.50
2019-02-28T18:42:58.265Z,38.80
2019-02-28T18:45:37.915Z,38.90
2019-02-28T18:48:18.723Z,39.10
2019-02-28T18:50:48.402Z,39.30
2019-02-28T18:53:20.447Z,39.60
2019-02-28T18:56:04.271Z,39.80
2019-02-28T18:58:35.786Z,40.00
2019-02-28T19:01:05.072Z,40.10
2019-02-28T19:03:34.290Z,40.20
2019-02-28T19:06:03.694Z,40.20
2019-02-28T19:08:42.968Z,40.30
2019-02-28T19:11:12.308Z,40.40
2019-02-28T19:13:47.519Z,40.60
2019-02-28T19:21:19.561Z,41.10
2019-02-28T19:23:50.464Z,41.10
2019-02-28T19:26:23.192Z,41.30
2019-02-28T19:28:54.854Z,41.20
2019-02-28T19:31:35.069Z,41.50
2019-02-28T19:34:04.319Z,41.50
2019-02-28T19:36:41.003Z,41.80
2019-02-28T19:39:12.488Z,41.60
2019-02-28T19:46:44.557Z,41.80
2019-02-28T19:49:18.353Z,42.00
2019-02-28T19:51:54.564Z,42.10
2019-02-28T19:54:23.711Z,42.20
2019-02-28T19:59:28.472Z,42.50
2019-02-28T20:04:28.896Z,42.90
2019-02-28T20:12:05.707Z,43.30
2019-02-28T20:14:36.789Z,43.40
2019-02-28T20:17:21.734Z,43.40
2019-02-28T20:20:03.878Z,43.70
2019-02-28T20:22:35.752Z,43.90
2019-02-28T20:25:05.690Z,43.90
2019-02-28T20:27:35.071Z,44.00
2019-02-28T20:30:04.486Z,44.20
2019-02-28T20:32:33.699Z,44.50
2019-02-28T20:37:32.736Z,44.70
2019-02-28T20:40:01.977Z,45.00
2019-02-28T20:42:38.579Z,45.00
2019-02-28T20:45:38.952Z,45.20
2019-02-28T20:53:29.093Z,45.40
2019-02-28T20:56:01.005Z,45.50
2019-02-28T20:58:43.617Z,45.60
2019-02-28T21:01:48.215Z,46.00
2019-02-28T21:07:00.228Z,46.10
2019-02-28T21:09:44.952Z,46.40
2019-02-28T21:12:12.361Z,46.60
2019-02-28T21:14:51.541Z,47.40
2019-02-28T21:19:52.588Z,47.10
2019-02-28T21:24:50.850Z,47.70
2019-02-28T21:32:21.015Z,48.70
2019-02-28T21:34:49.986Z,49.10
2019-02-28T21:37:19.051Z,49.70
2019-02-28T21:39:50.360Z,51.20
2019-02-28T21:42:23.591Z,49.90
2019-02-28T21:44:57.618Z,50.30
2019-02-28T21:55:14.266Z,51.50
2019-02-28T21:57:43.455Z,52.10
2019-02-28T22:00:19.558Z,52.00
2019-02-28T22:10:23.223Z,52.20
2019-02-28T22:12:55.391Z,52.20
2019-02-28T22:15:25.957Z,52.30
2019-02-28T22:20:30.750Z,52.70
2019-02-28T22:25:40.510Z,53.70
2019-02-28T22:28:09.685Z,53.90
2019-02-28T22:36:34.962Z,54.00
2019-02-28T22:41:33.478Z,54.40
2019-02-28T22:44:02.810Z,54.40
2019-02-28T22:46:39.403Z,54.30
2019-02-28T22:51:40.147Z,56.00
2019-02-28T22:54:15.487Z,55.60
2019-02-28T23:04:46.647Z,56.20
2019-02-28T23:07:17.835Z,56.30
2019-02-28T23:19:59.959Z,56.90
2019-02-28T23:22:48.147Z,56.90
2019-02-28T23:25:17.531Z,57.10
2019-02-28T23:27:48.212Z,56.70
2019-02-28T23:33:06.670Z,57.60
2019-02-28T23:35:57.656Z,57.80
2019-02-28T23:38:33.772Z,58.00
2019-02-28T23:41:18.812Z,58.00
2019-02-28T23:46:25.307Z,58.00
2019-02-28T23:51:25.117Z,57.90
2019-02-28T23:53:54.463Z,57.30
2019-02-28T23:56:26.823Z,57.60
2019-02-28T23:58:56.201Z,58.40
